Terminal Aerodrome Forecast
Issued by NWS Shreveport, LA

Home | Current Version | Previous Version | Text Only | Print | Product List | Glossary On
Versions: 1 2 3 4 5 6 7 8 9 10 11 12 13 14 15 16 17 18 19 20 21 22 23
956
FTUS44 KSHV 300252 AAB
TAFSHV
TAF AMD
KSHV 300252Z 3003/3024 VRB06KT P6SM VCTS FEW050CB BKN180 BKN300
      TEMPO 3003/3004 36012KT P6SM FEW050CB SCT180 BKN300
     FM301400 14005KT P6SM SCT140 SCT250
     FM301600 15005KT P6SM SCT050 SCT180 SCT250=

USA.gov is the U.S. government's official web portal to all federal, state and local government web resources and services.